sensor_id;sensor_type;location;lat;lon;timestamp;P1;durP1;ratioP1;P2;durP2;ratioP2
44606;SDS011;30315;46.072;14.474;2023-05-29T00:00:42;8.95;;;6.60;;
44606;SDS011;30315;46.072;14.474;2023-05-29T00:03:09;6.53;;;5.93;;
44606;SDS011;30315;46.072;14.474;2023-05-29T00:05:37;8.05;;;6.25;;
44606;SDS011;30315;46.072;14.474;2023-05-29T00:08:04;7.05;;;6.18;;
44606;SDS011;30315;46.072;14.474;2023-05-29T00:10:31;10.95;;;6.28;;
44606;SDS011;30315;46.072;14.474;2023-05-29T00:12:59;9.80;;;6.65;;
44606;SDS011;30315;46.072;14.474;2023-05-29T00:15:27;7.85;;;6.90;;
44606;SDS011;30315;46.072;14.474;2023-05-29T00:17:55;9.88;;;6.03;;
44606;SDS011;30315;46.072;14.474;2023-05-29T00:20:22;7.32;;;6.22;;
44606;SDS011;30315;46.072;14.474;2023-05-29T00:22:49;6.63;;;5.88;;
44606;SDS011;30315;46.072;14.474;2023-05-29T00:25:16;7.75;;;6.35;;
44606;SDS011;30315;46.072;14.474;2023-05-29T00:27:44;7.45;;;6.45;;
44606;SDS011;30315;46.072;14.474;2023-05-29T00:30:11;7.93;;;5.90;;
44606;SDS011;30315;46.072;14.474;2023-05-29T00:32:38;6.40;;;5.72;;
44606;SDS011;30315;46.072;14.474;2023-05-29T00:35:06;6.47;;;5.88;;
44606;SDS011;30315;46.072;14.474;2023-05-29T00:37:35;6.93;;;5.93;;
44606;SDS011;30315;46.072;14.474;2023-05-29T00:40:02;6.95;;;5.97;;
44606;SDS011;30315;46.072;14.474;2023-05-29T00:42:30;7.25;;;6.15;;
44606;SDS011;30315;46.072;14.474;2023-05-29T00:44:57;6.60;;;6.00;;
44606;SDS011;30315;46.072;14.474;2023-05-29T00:47:24;7.40;;;6.35;;
44606;SDS011;30315;46.072;14.474;2023-05-29T00:49:53;6.93;;;6.28;;
44606;SDS011;30315;46.072;14.474;2023-05-29T00:52:21;6.32;;;5.75;;
44606;SDS011;30315;46.072;14.474;2023-05-29T00:54:50;8.73;;;6.13;;
44606;SDS011;30315;46.072;14.474;2023-05-29T00:57:18;7.50;;;6.00;;
44606;SDS011;30315;46.072;14.474;2023-05-29T00:59:45;9.52;;;6.60;;
44606;SDS011;30315;46.072;14.474;2023-05-29T01:02:13;8.15;;;6.50;;
44606;SDS011;30315;46.072;14.474;2023-05-29T01:07:11;9.70;;;6.43;;
44606;SDS011;30315;46.072;14.474;2023-05-29T01:09:40;6.93;;;6.22;;
44606;SDS011;30315;46.072;14.474;2023-05-29T01:29:13;6.47;;;5.70;;
44606;SDS011;30315;46.072;14.474;2023-05-29T01:31:43;6.80;;;6.05;;
44606;SDS011;30315;46.072;14.474;2023-05-29T01:36:42;6.45;;;5.82;;
44606;SDS011;30315;46.072;14.474;2023-05-29T01:39:09;8.68;;;6.07;;
44606;SDS011;30315;46.072;14.474;2023-05-29T01:41:36;9.73;;;6.60;;
44606;SDS011;30315;46.072;14.474;2023-05-29T01:44:06;7.32;;;5.85;;
44606;SDS011;30315;46.072;14.474;2023-05-29T01:46:38;7.13;;;5.88;;
44606;SDS011;30315;46.072;14.474;2023-05-29T01:49:06;6.68;;;5.90;;
44606;SDS011;30315;46.072;14.474;2023-05-29T01:51:35;7.88;;;6.57;;
44606;SDS011;30315;46.072;14.474;2023-05-29T01:54:02;7.68;;;6.35;;
44606;SDS011;30315;46.072;14.474;2023-05-29T01:56:30;8.32;;;6.00;;
44606;SDS011;30315;46.072;14.474;2023-05-29T01:58:58;6.72;;;6.07;;
44606;SDS011;30315;46.072;14.474;2023-05-29T02:01:27;6.40;;;5.75;;
44606;SDS011;30315;46.072;14.474;2023-05-29T02:03:54;6.60;;;5.97;;
44606;SDS011;30315;46.072;14.474;2023-05-29T02:06:21;7.38;;;6.05;;
44606;SDS011;30315;46.072;14.474;2023-05-29T02:08:48;6.95;;;6.00;;
44606;SDS011;30315;46.072;14.474;2023-05-29T02:11:15;6.78;;;5.97;;
44606;SDS011;30315;46.072;14.474;2023-05-29T02:13:42;8.10;;;5.82;;
44606;SDS011;30315;46.072;14.474;2023-05-29T02:16:10;7.35;;;6.10;;
44606;SDS011;30315;46.072;14.474;2023-05-29T02:21:41;7.75;;;6.25;;
44606;SDS011;30315;46.072;14.474;2023-05-29T02:24:08;6.90;;;6.30;;
44606;SDS011;30315;46.072;14.474;2023-05-29T02:26:35;7.95;;;6.18;;
44606;SDS011;30315;46.072;14.474;2023-05-29T02:29:07;6.28;;;5.68;;
44606;SDS011;30315;46.072;14.474;2023-05-29T02:31:34;8.35;;;6.68;;
44606;SDS011;30315;46.072;14.474;2023-05-29T02:34:03;6.05;;;5.47;;
44606;SDS011;30315;46.072;14.474;2023-05-29T02:36:30;6.80;;;6.10;;
44606;SDS011;30315;46.072;14.474;2023-05-29T02:38:57;8.13;;;6.40;;
44606;SDS011;30315;46.072;14.474;2023-05-29T02:41:24;6.88;;;6.07;;
44606;SDS011;30315;46.072;14.474;2023-05-29T02:43:52;8.10;;;6.43;;
44606;SDS011;30315;46.072;14.474;2023-05-29T02:46:20;7.10;;;6.47;;
44606;SDS011;30315;46.072;14.474;2023-05-29T02:48:48;7.15;;;6.22;;
44606;SDS011;30315;46.072;14.474;2023-05-29T02:51:15;7.75;;;6.78;;
44606;SDS011;30315;46.072;14.474;2023-05-29T02:53:42;11.10;;;6.57;;
44606;SDS011;30315;46.072;14.474;2023-05-29T02:56:09;7.85;;;6.68;;
44606;SDS011;30315;46.072;14.474;2023-05-29T02:58:36;7.80;;;6.95;;
44606;SDS011;30315;46.072;14.474;2023-05-29T03:01:03;7.85;;;6.47;;
44606;SDS011;30315;46.072;14.474;2023-05-29T03:03:31;9.82;;;7.70;;
44606;SDS011;30315;46.072;14.474;2023-05-29T03:05:58;7.90;;;6.75;;
44606;SDS011;30315;46.072;14.474;2023-05-29T03:08:27;8.50;;;7.60;;
44606;SDS011;30315;46.072;14.474;2023-05-29T03:10:54;8.48;;;7.05;;
44606;SDS011;30315;46.072;14.474;2023-05-29T03:13:22;10.02;;;7.38;;
44606;SDS011;30315;46.072;14.474;2023-05-29T03:15:55;9.02;;;8.13;;
44606;SDS011;30315;46.072;14.474;2023-05-29T03:18:24;9.87;;;7.60;;
44606;SDS011;30315;46.072;14.474;2023-05-29T03:20:51;10.90;;;7.88;;
44606;SDS011;30315;46.072;14.474;2023-05-29T03:23:19;9.63;;;7.90;;
44606;SDS011;30315;46.072;14.474;2023-05-29T03:25:46;8.55;;;7.65;;
44606;SDS011;30315;46.072;14.474;2023-05-29T03:28:13;8.70;;;7.75;;
44606;SDS011;30315;46.072;14.474;2023-05-29T03:30:40;11.98;;;7.47;;
44606;SDS011;30315;46.072;14.474;2023-05-29T03:33:08;8.73;;;7.93;;
44606;SDS011;30315;46.072;14.474;2023-05-29T03:35:55;8.98;;;8.10;;
44606;SDS011;30315;46.072;14.474;2023-05-29T03:38:23;8.88;;;8.02;;
44606;SDS011;30315;46.072;14.474;2023-05-29T03:40:52;13.05;;;8.27;;
44606;SDS011;30315;46.072;14.474;2023-05-29T03:43:19;11.27;;;8.00;;
44606;SDS011;30315;46.072;14.474;2023-05-29T03:45:46;7.85;;;7.05;;
44606;SDS011;30315;46.072;14.474;2023-05-29T03:48:13;10.48;;;8.63;;
44606;SDS011;30315;46.072;14.474;2023-05-29T03:50:44;9.63;;;8.07;;
44606;SDS011;30315;46.072;14.474;2023-05-29T03:53:15;10.23;;;7.50;;
44606;SDS011;30315;46.072;14.474;2023-05-29T03:55:42;9.20;;;7.95;;
44606;SDS011;30315;46.072;14.474;2023-05-29T03:58:10;11.07;;;8.48;;
44606;SDS011;30315;46.072;14.474;2023-05-29T04:00:39;9.80;;;7.30;;
44606;SDS011;30315;46.072;14.474;2023-05-29T04:03:07;10.88;;;7.88;;
44606;SDS011;30315;46.072;14.474;2023-05-29T04:05:35;9.35;;;7.82;;
44606;SDS011;30315;46.072;14.474;2023-05-29T04:08:02;8.82;;;7.93;;
44606;SDS011;30315;46.072;14.474;2023-05-29T04:10:41;8.70;;;7.85;;
44606;SDS011;30315;46.072;14.474;2023-05-29T04:13:09;10.15;;;8.52;;
44606;SDS011;30315;46.072;14.474;2023-05-29T04:15:37;10.43;;;8.05;;
44606;SDS011;30315;46.072;14.474;2023-05-29T04:18:04;9.57;;;7.97;;
44606;SDS011;30315;46.072;14.474;2023-05-29T04:20:32;8.90;;;8.00;;
44606;SDS011;30315;46.072;14.474;2023-05-29T04:22:59;9.48;;;8.48;;
44606;SDS011;30315;46.072;14.474;2023-05-29T04:25:27;11.93;;;8.30;;
44606;SDS011;30315;46.072;14.474;2023-05-29T04:27:54;12.50;;;9.05;;
44606;SDS011;30315;46.072;14.474;2023-05-29T04:30:22;10.90;;;8.57;;
44606;SDS011;30315;46.072;14.474;2023-05-29T04:32:49;10.05;;;8.25;;
44606;SDS011;30315;46.072;14.474;2023-05-29T04:35:16;12.13;;;8.73;;
44606;SDS011;30315;46.072;14.474;2023-05-29T04:37:52;10.82;;;8.77;;
44606;SDS011;30315;46.072;14.474;2023-05-29T04:40:19;9.15;;;8.25;;
44606;SDS011;30315;46.072;14.474;2023-05-29T04:42:47;11.38;;;9.13;;
44606;SDS011;30315;46.072;14.474;2023-05-29T04:45:15;11.93;;;8.73;;
44606;SDS011;30315;46.072;14.474;2023-05-29T04:47:43;10.43;;;8.50;;
44606;SDS011;30315;46.072;14.474;2023-05-29T04:50:11;13.77;;;8.60;;
44606;SDS011;30315;46.072;14.474;2023-05-29T04:52:41;13.15;;;9.00;;
44606;SDS011;30315;46.072;14.474;2023-05-29T04:55:09;9.77;;;8.77;;
44606;SDS011;30315;46.072;14.474;2023-05-29T04:57:37;11.35;;;8.60;;
44606;SDS011;30315;46.072;14.474;2023-05-29T05:00:07;13.05;;;8.57;;
44606;SDS011;30315;46.072;14.474;2023-05-29T05:02:43;9.05;;;8.13;;
44606;SDS011;30315;46.072;14.474;2023-05-29T05:05:12;15.70;;;8.60;;
44606;SDS011;30315;46.072;14.474;2023-05-29T05:07:39;10.10;;;8.57;;
44606;SDS011;30315;46.072;14.474;2023-05-29T05:10:06;15.23;;;9.68;;
44606;SDS011;30315;46.072;14.474;2023-05-29T05:12:34;9.40;;;8.40;;
44606;SDS011;30315;46.072;14.474;2023-05-29T05:15:02;18.85;;;9.45;;
44606;SDS011;30315;46.072;14.474;2023-05-29T05:17:30;14.80;;;8.88;;
44606;SDS011;30315;46.072;14.474;2023-05-29T05:19:57;13.27;;;8.70;;
44606;SDS011;30315;46.072;14.474;2023-05-29T05:22:24;11.95;;;8.73;;
44606;SDS011;30315;46.072;14.474;2023-05-29T05:24:52;14.15;;;9.13;;
44606;SDS011;30315;46.072;14.474;2023-05-29T05:27:23;12.68;;;9.23;;
44606;SDS011;30315;46.072;14.474;2023-05-29T05:29:51;10.50;;;8.88;;
44606;SDS011;30315;46.072;14.474;2023-05-29T05:32:18;9.63;;;8.38;;
44606;SDS011;30315;46.072;14.474;2023-05-29T05:34:54;11.98;;;9.05;;
44606;SDS011;30315;46.072;14.474;2023-05-29T05:37:24;9.77;;;8.25;;
44606;SDS011;30315;46.072;14.474;2023-05-29T05:39:54;13.02;;;8.98;;
44606;SDS011;30315;46.072;14.474;2023-05-29T05:42:27;10.95;;;8.82;;
44606;SDS011;30315;46.072;14.474;2023-05-29T05:45:03;10.35;;;9.23;;
44606;SDS011;30315;46.072;14.474;2023-05-29T05:47:34;9.25;;;8.18;;
44606;SDS011;30315;46.072;14.474;2023-05-29T05:50:02;11.20;;;8.95;;
44606;SDS011;30315;46.072;14.474;2023-05-29T05:52:30;13.10;;;8.88;;
44606;SDS011;30315;46.072;14.474;2023-05-29T05:55:00;11.68;;;9.40;;
44606;SDS011;30315;46.072;14.474;2023-05-29T05:57:28;14.18;;;9.63;;
44606;SDS011;30315;46.072;14.474;2023-05-29T05:59:55;13.65;;;9.27;;
44606;SDS011;30315;46.072;14.474;2023-05-29T06:02:24;10.70;;;9.23;;
44606;SDS011;30315;46.072;14.474;2023-05-29T06:04:51;14.25;;;8.95;;
44606;SDS011;30315;46.072;14.474;2023-05-29T06:07:18;12.73;;;9.45;;
44606;SDS011;30315;46.072;14.474;2023-05-29T06:09:46;11.70;;;8.90;;
44606;SDS011;30315;46.072;14.474;2023-05-29T06:12:14;13.43;;;9.77;;
44606;SDS011;30315;46.072;14.474;2023-05-29T06:14:52;11.93;;;9.60;;
44606;SDS011;30315;46.072;14.474;2023-05-29T06:17:19;12.75;;;9.70;;
44606;SDS011;30315;46.072;14.474;2023-05-29T06:19:48;9.32;;;8.40;;
44606;SDS011;30315;46.072;14.474;2023-05-29T06:22:16;9.50;;;8.13;;
44606;SDS011;30315;46.072;14.474;2023-05-29T06:24:44;10.43;;;8.13;;
44606;SDS011;30315;46.072;14.474;2023-05-29T06:27:12;9.13;;;8.23;;
44606;SDS011;30315;46.072;14.474;2023-05-29T06:29:42;10.80;;;8.98;;
44606;SDS011;30315;46.072;14.474;2023-05-29T06:32:09;15.52;;;10.05;;
44606;SDS011;30315;46.072;14.474;2023-05-29T06:34:36;17.17;;;9.35;;
44606;SDS011;30315;46.072;14.474;2023-05-29T06:37:04;18.17;;;10.02;;
44606;SDS011;30315;46.072;14.474;2023-05-29T06:39:31;10.93;;;7.85;;
44606;SDS011;30315;46.072;14.474;2023-05-29T06:41:58;10.63;;;8.80;;
44606;SDS011;30315;46.072;14.474;2023-05-29T06:44:25;11.85;;;9.45;;
44606;SDS011;30315;46.072;14.474;2023-05-29T06:46:53;11.73;;;8.35;;
44606;SDS011;30315;46.072;14.474;2023-05-29T06:49:20;9.30;;;7.75;;
44606;SDS011;30315;46.072;14.474;2023-05-29T06:51:47;10.48;;;8.10;;
44606;SDS011;30315;46.072;14.474;2023-05-29T06:54:34;11.77;;;8.40;;
44606;SDS011;30315;46.072;14.474;2023-05-29T06:57:01;9.77;;;7.75;;
44606;SDS011;30315;46.072;14.474;2023-05-29T06:59:37;11.15;;;8.35;;
44606;SDS011;30315;46.072;14.474;2023-05-29T07:02:06;10.73;;;7.97;;
44606;SDS011;30315;46.072;14.474;2023-05-29T07:04:34;7.72;;;6.93;;
44606;SDS011;30315;46.072;14.474;2023-05-29T07:07:01;9.48;;;7.47;;
44606;SDS011;30315;46.072;14.474;2023-05-29T07:09:31;8.23;;;7.18;;
44606;SDS011;30315;46.072;14.474;2023-05-29T07:11:58;13.27;;;7.85;;
44606;SDS011;30315;46.072;14.474;2023-05-29T07:14:25;11.63;;;7.75;;
44606;SDS011;30315;46.072;14.474;2023-05-29T07:16:53;10.95;;;8.38;;
44606;SDS011;30315;46.072;14.474;2023-05-29T07:19:20;9.60;;;7.75;;
44606;SDS011;30315;46.072;14.474;2023-05-29T07:21:48;12.23;;;7.20;;
44606;SDS011;30315;46.072;14.474;2023-05-29T07:24:18;11.07;;;8.00;;
44606;SDS011;30315;46.072;14.474;2023-05-29T07:26:46;9.93;;;7.72;;
44606;SDS011;30315;46.072;14.474;2023-05-29T07:29:13;9.20;;;7.50;;
44606;SDS011;30315;46.072;14.474;2023-05-29T07:31:41;9.68;;;8.20;;
44606;SDS011;30315;46.072;14.474;2023-05-29T07:34:09;10.40;;;7.00;;
44606;SDS011;30315;46.072;14.474;2023-05-29T07:36:37;8.68;;;6.90;;
44606;SDS011;30315;46.072;14.474;2023-05-29T07:39:34;8.05;;;6.10;;
44606;SDS011;30315;46.072;14.474;2023-05-29T07:42:11;8.07;;;6.85;;
44606;SDS011;30315;46.072;14.474;2023-05-29T07:44:41;9.35;;;6.47;;
44606;SDS011;30315;46.072;14.474;2023-05-29T07:47:09;8.50;;;6.57;;
44606;SDS011;30315;46.072;14.474;2023-05-29T07:49:43;7.93;;;6.20;;
44606;SDS011;30315;46.072;14.474;2023-05-29T07:52:11;8.50;;;6.28;;
44606;SDS011;30315;46.072;14.474;2023-05-29T07:54:38;7.05;;;6.30;;
44606;SDS011;30315;46.072;14.474;2023-05-29T07:57:07;10.50;;;5.93;;
44606;SDS011;30315;46.072;14.474;2023-05-29T07:59:41;7.18;;;6.32;;
44606;SDS011;30315;46.072;14.474;2023-05-29T08:02:10;8.18;;;6.75;;
44606;SDS011;30315;46.072;14.474;2023-05-29T08:04:57;9.25;;;6.18;;
44606;SDS011;30315;46.072;14.474;2023-05-29T08:07:24;9.30;;;5.88;;
44606;SDS011;30315;46.072;14.474;2023-05-29T08:09:53;6.88;;;5.35;;
44606;SDS011;30315;46.072;14.474;2023-05-29T08:12:20;5.78;;;5.20;;
44606;SDS011;30315;46.072;14.474;2023-05-29T08:14:50;12.73;;;5.93;;
44606;SDS011;30315;46.072;14.474;2023-05-29T08:17:17;8.02;;;5.82;;
44606;SDS011;30315;46.072;14.474;2023-05-29T08:19:44;9.05;;;6.22;;
44606;SDS011;30315;46.072;14.474;2023-05-29T08:22:12;8.45;;;5.63;;
44606;SDS011;30315;46.072;14.474;2023-05-29T08:27:08;8.27;;;5.80;;
44606;SDS011;30315;46.072;14.474;2023-05-29T08:29:35;8.25;;;5.50;;
44606;SDS011;30315;46.072;14.474;2023-05-29T08:32:03;8.35;;;5.93;;
44606;SDS011;30315;46.072;14.474;2023-05-29T08:34:30;6.43;;;5.63;;
44606;SDS011;30315;46.072;14.474;2023-05-29T08:36:57;6.95;;;4.80;;
44606;SDS011;30315;46.072;14.474;2023-05-29T08:39:24;7.50;;;5.35;;
44606;SDS011;30315;46.072;14.474;2023-05-29T08:44:33;6.95;;;5.05;;
44606;SDS011;30315;46.072;14.474;2023-05-29T08:47:06;6.63;;;5.13;;
44606;SDS011;30315;46.072;14.474;2023-05-29T08:49:45;8.13;;;5.72;;
44606;SDS011;30315;46.072;14.474;2023-05-29T08:52:19;8.38;;;5.30;;
44606;SDS011;30315;46.072;14.474;2023-05-29T08:54:48;6.85;;;5.10;;
44606;SDS011;30315;46.072;14.474;2023-05-29T08:57:16;6.45;;;4.97;;
44606;SDS011;30315;46.072;14.474;2023-05-29T08:59:43;9.38;;;5.40;;
44606;SDS011;30315;46.072;14.474;2023-05-29T09:02:11;6.18;;;5.00;;
44606;SDS011;30315;46.072;14.474;2023-05-29T09:04:41;8.57;;;5.47;;
44606;SDS011;30315;46.072;14.474;2023-05-29T09:07:11;6.22;;;4.60;;
44606;SDS011;30315;46.072;14.474;2023-05-29T09:09:39;7.07;;;4.50;;
44606;SDS011;30315;46.072;14.474;2023-05-29T09:12:06;7.30;;;5.13;;
44606;SDS011;30315;46.072;14.474;2023-05-29T09:14:37;7.03;;;4.90;;
44606;SDS011;30315;46.072;14.474;2023-05-29T09:17:07;5.30;;;4.80;;
44606;SDS011;30315;46.072;14.474;2023-05-29T09:19:35;7.38;;;4.90;;
44606;SDS011;30315;46.072;14.474;2023-05-29T09:22:04;6.50;;;4.88;;
44606;SDS011;30315;46.072;14.474;2023-05-29T09:24:32;10.75;;;4.88;;
44606;SDS011;30315;46.072;14.474;2023-05-29T09:27:00;7.55;;;5.18;;
44606;SDS011;30315;46.072;14.474;2023-05-29T09:29:30;6.63;;;4.70;;
44606;SDS011;30315;46.072;14.474;2023-05-29T09:31:59;5.53;;;4.90;;
44606;SDS011;30315;46.072;14.474;2023-05-29T09:34:30;6.75;;;5.10;;
44606;SDS011;30315;46.072;14.474;2023-05-29T09:37:05;5.18;;;4.65;;
44606;SDS011;30315;46.072;14.474;2023-05-29T09:42:11;6.88;;;4.90;;
44606;SDS011;30315;46.072;14.474;2023-05-29T09:44:42;6.93;;;4.35;;
44606;SDS011;30315;46.072;14.474;2023-05-29T09:47:17;6.75;;;4.95;;
44606;SDS011;30315;46.072;14.474;2023-05-29T09:49:46;5.13;;;4.60;;
44606;SDS011;30315;46.072;14.474;2023-05-29T09:52:13;6.93;;;4.93;;
44606;SDS011;30315;46.072;14.474;2023-05-29T09:54:43;5.30;;;4.90;;
44606;SDS011;30315;46.072;14.474;2023-05-29T09:57:13;6.68;;;4.68;;
44606;SDS011;30315;46.072;14.474;2023-05-29T09:59:45;6.55;;;4.95;;
44606;SDS011;30315;46.072;14.474;2023-05-29T10:02:18;5.65;;;4.75;;
44606;SDS011;30315;46.072;14.474;2023-05-29T10:04:46;9.65;;;4.95;;
44606;SDS011;30315;46.072;14.474;2023-05-29T10:07:20;6.72;;;5.10;;
44606;SDS011;30315;46.072;14.474;2023-05-29T10:09:58;6.88;;;5.53;;
44606;SDS011;30315;46.072;14.474;2023-05-29T10:12:29;4.85;;;4.45;;
44606;SDS011;30315;46.072;14.474;2023-05-29T10:14:57;5.78;;;5.18;;
44606;SDS011;30315;46.072;14.474;2023-05-29T10:17:28;5.40;;;4.90;;
44606;SDS011;30315;46.072;14.474;2023-05-29T10:20:00;4.80;;;4.40;;
44606;SDS011;30315;46.072;14.474;2023-05-29T10:22:31;5.32;;;4.75;;
44606;SDS011;30315;46.072;14.474;2023-05-29T10:24:58;7.47;;;5.35;;
44606;SDS011;30315;46.072;14.474;2023-05-29T10:27:26;5.78;;;5.28;;
44606;SDS011;30315;46.072;14.474;2023-05-29T10:30:04;5.63;;;4.75;;
44606;SDS011;30315;46.072;14.474;2023-05-29T10:35:42;5.10;;;4.45;;
44606;SDS011;30315;46.072;14.474;2023-05-29T10:38:17;5.63;;;5.00;;
44606;SDS011;30315;46.072;14.474;2023-05-29T10:40:45;5.38;;;4.82;;
44606;SDS011;30315;46.072;14.474;2023-05-29T10:46:12;5.55;;;5.05;;
44606;SDS011;30315;46.072;14.474;2023-05-29T10:48:39;5.28;;;4.75;;
44606;SDS011;30315;46.072;14.474;2023-05-29T10:51:24;5.40;;;4.90;;
44606;SDS011;30315;46.072;14.474;2023-05-29T10:53:52;6.38;;;4.13;;
44606;SDS011;30315;46.072;14.474;2023-05-29T10:56:22;5.30;;;4.80;;
44606;SDS011;30315;46.072;14.474;2023-05-29T10:58:55;5.20;;;4.78;;
44606;SDS011;30315;46.072;14.474;2023-05-29T11:01:24;7.00;;;4.97;;
44606;SDS011;30315;46.072;14.474;2023-05-29T11:04:25;4.95;;;4.55;;
44606;SDS011;30315;46.072;14.474;2023-05-29T11:06:48;5.07;;;4.30;;
44606;SDS011;30315;46.072;14.474;2023-05-29T11:14:45;5.28;;;4.40;;
44606;SDS011;30315;46.072;14.474;2023-05-29T11:17:29;4.90;;;4.50;;
44606;SDS011;30315;46.072;14.474;2023-05-29T11:20:00;5.28;;;4.63;;
44606;SDS011;30315;46.072;14.474;2023-05-29T11:25:24;4.95;;;4.40;;
44606;SDS011;30315;46.072;14.474;2023-05-29T11:27:54;5.15;;;4.75;;
44606;SDS011;30315;46.072;14.474;2023-05-29T11:30:22;5.40;;;4.60;;
44606;SDS011;30315;46.072;14.474;2023-05-29T11:32:49;5.40;;;4.65;;
44606;SDS011;30315;46.072;14.474;2023-05-29T11:35:20;6.18;;;4.47;;
44606;SDS011;30315;46.072;14.474;2023-05-29T11:37:49;6.60;;;5.00;;
44606;SDS011;30315;46.072;14.474;2023-05-29T11:40:20;4.95;;;4.53;;
44606;SDS011;30315;46.072;14.474;2023-05-29T11:42:50;5.47;;;4.97;;
44606;SDS011;30315;46.072;14.474;2023-05-29T11:45:21;5.47;;;4.80;;
44606;SDS011;30315;46.072;14.474;2023-05-29T11:47:52;5.45;;;4.95;;
44606;SDS011;30315;46.072;14.474;2023-05-29T11:50:24;5.50;;;5.00;;
44606;SDS011;30315;46.072;14.474;2023-05-29T11:52:57;4.90;;;4.50;;
44606;SDS011;30315;46.072;14.474;2023-05-29T11:55:31;5.07;;;4.60;;
44606;SDS011;30315;46.072;14.474;2023-05-29T11:57:59;5.80;;;5.30;;
44606;SDS011;30315;46.072;14.474;2023-05-29T12:00:31;5.53;;;4.97;;
44606;SDS011;30315;46.072;14.474;2023-05-29T12:03:06;5.00;;;4.60;;
44606;SDS011;30315;46.072;14.474;2023-05-29T12:05:44;7.47;;;4.85;;
44606;SDS011;30315;46.072;14.474;2023-05-29T12:11:05;6.05;;;5.15;;
44606;SDS011;30315;46.072;14.474;2023-05-29T12:13:33;6.50;;;4.78;;
44606;SDS011;30315;46.072;14.474;2023-05-29T12:16:02;4.95;;;4.53;;
44606;SDS011;30315;46.072;14.474;2023-05-29T12:18:33;5.43;;;4.93;;
44606;SDS011;30315;46.072;14.474;2023-05-29T12:21:01;5.70;;;4.63;;
44606;SDS011;30315;46.072;14.474;2023-05-29T12:25:58;5.90;;;4.38;;
44606;SDS011;30315;46.072;14.474;2023-05-29T12:28:25;6.35;;;4.45;;
44606;SDS011;30315;46.072;14.474;2023-05-29T12:30:57;5.50;;;4.63;;
44606;SDS011;30315;46.072;14.474;2023-05-29T12:33:26;4.57;;;4.18;;
44606;SDS011;30315;46.072;14.474;2023-05-29T12:36:00;11.95;;;5.32;;
44606;SDS011;30315;46.072;14.474;2023-05-29T12:38:32;11.30;;;4.65;;
44606;SDS011;30315;46.072;14.474;2023-05-29T12:41:02;4.68;;;4.28;;
44606;SDS011;30315;46.072;14.474;2023-05-29T12:43:30;4.72;;;4.28;;
44606;SDS011;30315;46.072;14.474;2023-05-29T12:45:57;5.35;;;4.82;;
44606;SDS011;30315;46.072;14.474;2023-05-29T12:48:27;5.05;;;4.53;;
44606;SDS011;30315;46.072;14.474;2023-05-29T12:50:56;4.75;;;4.20;;
44606;SDS011;30315;46.072;14.474;2023-05-29T12:53:27;4.88;;;4.47;;
44606;SDS011;30315;46.072;14.474;2023-05-29T12:55:55;6.80;;;4.70;;
44606;SDS011;30315;46.072;14.474;2023-05-29T12:58:23;4.68;;;4.28;;
44606;SDS011;30315;46.072;14.474;2023-05-29T13:00:52;4.97;;;4.50;;
44606;SDS011;30315;46.072;14.474;2023-05-29T13:03:22;4.78;;;4.05;;
44606;SDS011;30315;46.072;14.474;2023-05-29T13:05:50;4.80;;;4.30;;
44606;SDS011;30315;46.072;14.474;2023-05-29T13:08:18;5.00;;;4.50;;
44606;SDS011;30315;46.072;14.474;2023-05-29T13:10:46;6.28;;;4.15;;
44606;SDS011;30315;46.072;14.474;2023-05-29T13:13:13;5.47;;;4.95;;
44606;SDS011;30315;46.072;14.474;2023-05-29T13:15:40;9.82;;;4.43;;
44606;SDS011;30315;46.072;14.474;2023-05-29T13:18:07;5.25;;;4.70;;
44606;SDS011;30315;46.072;14.474;2023-05-29T13:20:34;5.57;;;4.53;;
44606;SDS011;30315;46.072;14.474;2023-05-29T13:23:01;5.50;;;4.47;;
44606;SDS011;30315;46.072;14.474;2023-05-29T13:25:28;4.65;;;4.25;;
44606;SDS011;30315;46.072;14.474;2023-05-29T13:27:55;7.05;;;4.68;;
44606;SDS011;30315;46.072;14.474;2023-05-29T13:30:22;4.60;;;4.18;;
44606;SDS011;30315;46.072;14.474;2023-05-29T13:32:50;5.47;;;4.07;;
44606;SDS011;30315;46.072;14.474;2023-05-29T13:35:18;5.15;;;4.65;;
44606;SDS011;30315;46.072;14.474;2023-05-29T13:37:46;5.22;;;4.70;;
44606;SDS011;30315;46.072;14.474;2023-05-29T13:40:13;5.35;;;4.85;;
44606;SDS011;30315;46.072;14.474;2023-05-29T13:42:42;5.15;;;4.65;;
44606;SDS011;30315;46.072;14.474;2023-05-29T13:45:09;6.40;;;4.70;;
44606;SDS011;30315;46.072;14.474;2023-05-29T13:47:38;5.22;;;4.75;;
44606;SDS011;30315;46.072;14.474;2023-05-29T13:50:05;4.55;;;4.20;;
44606;SDS011;30315;46.072;14.474;2023-05-29T13:52:33;5.07;;;4.68;;
44606;SDS011;30315;46.072;14.474;2023-05-29T13:55:00;4.93;;;4.53;;
44606;SDS011;30315;46.072;14.474;2023-05-29T13:57:32;4.90;;;4.50;;
44606;SDS011;30315;46.072;14.474;2023-05-29T13:59:59;4.85;;;4.45;;
44606;SDS011;30315;46.072;14.474;2023-05-29T14:02:30;5.13;;;4.68;;
44606;SDS011;30315;46.072;14.474;2023-05-29T14:04:58;4.80;;;4.40;;
44606;SDS011;30315;46.072;14.474;2023-05-29T14:07:24;5.15;;;4.65;;
44606;SDS011;30315;46.072;14.474;2023-05-29T14:09:52;4.88;;;4.47;;
44606;SDS011;30315;46.072;14.474;2023-05-29T14:12:19;5.07;;;4.68;;
44606;SDS011;30315;46.072;14.474;2023-05-29T14:14:46;5.25;;;4.85;;
44606;SDS011;30315;46.072;14.474;2023-05-29T14:17:13;4.75;;;4.28;;
44606;SDS011;30315;46.072;14.474;2023-05-29T14:19:41;5.65;;;5.10;;
44606;SDS011;30315;46.072;14.474;2023-05-29T14:22:08;5.15;;;4.75;;
44606;SDS011;30315;46.072;14.474;2023-05-29T14:24:35;5.03;;;4.32;;
44606;SDS011;30315;46.072;14.474;2023-05-29T14:27:02;5.00;;;4.60;;
44606;SDS011;30315;46.072;14.474;2023-05-29T14:29:29;4.80;;;4.40;;
44606;SDS011;30315;46.072;14.474;2023-05-29T14:31:57;7.65;;;4.63;;
44606;SDS011;30315;46.072;14.474;2023-05-29T14:34:24;5.68;;;5.18;;
44606;SDS011;30315;46.072;14.474;2023-05-29T14:36:51;5.07;;;4.68;;
44606;SDS011;30315;46.072;14.474;2023-05-29T14:39:19;5.40;;;4.90;;
44606;SDS011;30315;46.072;14.474;2023-05-29T14:41:46;5.20;;;4.63;;
44606;SDS011;30315;46.072;14.474;2023-05-29T14:44:14;5.05;;;4.65;;
44606;SDS011;30315;46.072;14.474;2023-05-29T14:46:42;4.65;;;4.30;;
44606;SDS011;30315;46.072;14.474;2023-05-29T14:49:10;5.50;;;5.00;;
44606;SDS011;30315;46.072;14.474;2023-05-29T14:51:38;4.57;;;4.18;;
44606;SDS011;30315;46.072;14.474;2023-05-29T14:54:07;6.78;;;4.50;;
44606;SDS011;30315;46.072;14.474;2023-05-29T14:56:36;4.65;;;4.25;;
44606;SDS011;30315;46.072;14.474;2023-05-29T14:59:03;4.65;;;4.28;;
44606;SDS011;30315;46.072;14.474;2023-05-29T15:01:33;4.90;;;4.53;;
44606;SDS011;30315;46.072;14.474;2023-05-29T15:04:00;5.63;;;4.68;;
44606;SDS011;30315;46.072;14.474;2023-05-29T15:06:30;6.25;;;4.68;;
44606;SDS011;30315;46.072;14.474;2023-05-29T15:08:59;5.63;;;5.15;;
44606;SDS011;30315;46.072;14.474;2023-05-29T15:11:32;4.90;;;4.50;;
44606;SDS011;30315;46.072;14.474;2023-05-29T15:14:00;6.30;;;4.60;;
44606;SDS011;30315;46.072;14.474;2023-05-29T15:16:27;4.70;;;4.30;;
44606;SDS011;30315;46.072;14.474;2023-05-29T15:18:55;5.38;;;4.60;;
44606;SDS011;30315;46.072;14.474;2023-05-29T15:21:22;5.00;;;4.57;;
44606;SDS011;30315;46.072;14.474;2023-05-29T15:23:49;4.97;;;4.57;;
44606;SDS011;30315;46.072;14.474;2023-05-29T15:26:16;5.07;;;4.68;;
44606;SDS011;30315;46.072;14.474;2023-05-29T15:28:43;6.30;;;4.90;;
44606;SDS011;30315;46.072;14.474;2023-05-29T15:31:10;5.18;;;4.53;;
44606;SDS011;30315;46.072;14.474;2023-05-29T15:33:37;5.07;;;4.55;;